Terminal Aerodrome Forecast
Issued by NWS

Home | Current Version | Previous Version | Text Only | Print | Product List | Glossary On
Versions: 1 2 3 4 5 6 7 8 9 10 11 12 13 14 15 16 17
000
FTUS46 KSEW 242300
TAFBFI
TAF
KBFI 242320Z 2500/2524 25005KT P6SM BKN025 BKN045
     FM250100 VRB04KT P6SM BKN025 BKN045
     FM250800 18004KT P6SM OVC018
      TEMPO 2512/2516 -DZ OVC015
     FM251900 19005KT P6SM BKN028 BKN045
     FM252100 20006KT P6SM BKN030 BKN050
     FM252300 20006KT P6SM BKN050=

USA.gov is the U.S. government's official web portal to all federal, state and local government web resources and services.